Avila Beach, California
Current Conditions -  °F | °C
As of 6:56 AM on Monday 24 Nov 2014 (Local Time) from KSBP Reporting Station
Clear Clear  
Wind Chill: 51°   Ceiling: Unl
Heat Index: 51°   Visibility: 10mi
Dew Point: 31°   Wind: 8mph
Humidity: 46%   Direction: 300°WNW
Pressure: 30.27"   Gusts: NA
Location:  35.18°N, 120.73°W
Report Text: KSBP 241456Z 30007KT 10SM CLR 11/M01 A3027 RMK AO2 SLP249 T01061006 53011
Loading
Personal Weather Stations






























Interactive Weather Map New forecast layout! Learn more

10-Day Weather Forecast

Advertisements
Track Severe Weather on mobile